createdAt,value
2022-09-15T00:01:45.443Z,19.27
2022-09-15T00:04:48.648Z,19.24
2022-09-15T00:07:51.294Z,19.23
2022-09-15T00:11:06.031Z,19.18
2022-09-15T00:14:09.168Z,19.09
2022-09-15T00:17:12.343Z,19.30
2022-09-15T00:20:16.333Z,19.16
2022-09-15T00:23:19.296Z,19.17
2022-09-15T00:26:24.648Z,19.20
2022-09-15T00:29:27.764Z,19.21
2022-09-15T00:32:31.000Z,19.28
2022-09-15T00:35:37.906Z,19.41
2022-09-15T00:38:41.186Z,19.34
2022-09-15T00:41:44.557Z,19.38
2022-09-15T00:44:59.119Z,19.45
2022-09-15T00:48:04.433Z,19.45
2022-09-15T00:51:09.228Z,19.35
2022-09-15T00:54:17.565Z,19.36
2022-09-15T00:57:27.380Z,19.30
2022-09-15T01:00:30.857Z,19.32
2022-09-15T01:03:35.622Z,19.56
2022-09-15T01:06:45.248Z,19.72
2022-09-15T01:09:58.675Z,20.03
2022-09-15T01:13:06.925Z,20.11
2022-09-15T01:16:12.888Z,20.15
2022-09-15T01:19:34.226Z,20.12
2022-09-15T01:22:58.429Z,20.14
2022-09-15T01:26:51.706Z,20.03
2022-09-15T01:30:23.043Z,20.23
2022-09-15T01:33:39.507Z,20.26
2022-09-15T01:36:52.507Z,20.31
2022-09-15T01:39:58.877Z,20.30
2022-09-15T01:43:05.402Z,20.27
2022-09-15T01:46:09.826Z,20.22
2022-09-15T01:49:17.707Z,20.15
2022-09-15T01:52:23.886Z,20.15
2022-09-15T01:55:38.022Z,20.12
2022-09-15T01:58:43.923Z,20.11
2022-09-15T02:01:57.429Z,20.11
2022-09-15T02:05:25.747Z,20.19
2022-09-15T02:08:58.617Z,19.98
2022-09-15T02:12:12.368Z,19.87
2022-09-15T02:15:27.327Z,19.82
2022-09-15T02:18:48.591Z,19.81
2022-09-15T02:21:59.326Z,19.71
2022-09-15T02:25:09.973Z,19.62
2022-09-15T02:28:15.303Z,19.54
2022-09-15T02:31:23.265Z,19.56
2022-09-15T02:34:31.505Z,19.49
2022-09-15T02:37:37.049Z,19.44
2022-09-15T02:40:43.381Z,19.49
2022-09-15T02:43:50.381Z,19.83
2022-09-15T02:46:53.317Z,20.05
2022-09-15T02:49:57.160Z,20.15
2022-09-15T02:53:00.139Z,20.08
2022-09-15T02:56:05.981Z,20.14
2022-09-15T02:59:09.026Z,20.14
2022-09-15T03:02:12.588Z,20.15
2022-09-15T03:05:17.085Z,20.14
2022-09-15T03:08:20.268Z,20.11
2022-09-15T03:11:26.795Z,20.08
2022-09-15T03:14:32.614Z,20.12
2022-09-15T03:17:37.486Z,20.11
2022-09-15T03:20:40.632Z,20.02
2022-09-15T03:23:43.414Z,20.12
2022-09-15T03:26:47.832Z,20.19
2022-09-15T03:29:50.810Z,20.15
2022-09-15T03:32:54.012Z,20.15
2022-09-15T03:35:57.281Z,20.13
2022-09-15T03:39:00.631Z,20.22
2022-09-15T03:42:04.245Z,20.22
2022-09-15T03:45:07.851Z,20.25
2022-09-15T03:48:10.608Z,20.22
2022-09-15T03:51:14.347Z,20.20
2022-09-15T03:54:17.795Z,20.13
2022-09-15T03:57:20.694Z,20.01
2022-09-15T04:00:23.570Z,19.92
2022-09-15T04:03:26.935Z,20.01
2022-09-15T04:06:29.927Z,19.96
2022-09-15T04:09:33.000Z,20.02
2022-09-15T04:12:36.369Z,19.97
2022-09-15T04:15:39.493Z,20.17
2022-09-15T04:18:42.842Z,20.17
2022-09-15T04:21:47.512Z,20.10
2022-09-15T04:24:50.418Z,20.04
2022-09-15T04:27:54.207Z,20.08
2022-09-15T04:31:09.684Z,20.07
2022-09-15T04:34:12.874Z,20.13
2022-09-15T04:37:15.788Z,20.24
2022-09-15T04:40:18.912Z,20.28
2022-09-15T04:43:22.289Z,20.35
2022-09-15T04:46:26.109Z,20.32
2022-09-15T04:49:29.333Z,20.18
2022-09-15T04:52:32.633Z,20.22
2022-09-15T04:55:36.138Z,20.26
2022-09-15T04:58:45.512Z,20.30
2022-09-15T05:01:48.743Z,20.30
2022-09-15T05:04:52.268Z,20.39
2022-09-15T05:07:54.895Z,20.29
2022-09-15T05:11:02.906Z,20.35
2022-09-15T05:14:06.435Z,20.35
2022-09-15T05:17:09.527Z,20.37
2022-09-15T05:20:12.404Z,20.33
2022-09-15T05:23:15.405Z,20.37
2022-09-15T05:26:22.682Z,20.42
2022-09-15T05:29:25.889Z,20.45
2022-09-15T05:32:28.747Z,20.50
2022-09-15T05:35:31.897Z,20.41
2022-09-15T05:38:35.107Z,20.47
2022-09-15T05:41:38.189Z,20.45
2022-09-15T05:44:41.096Z,20.47
2022-09-15T05:47:44.156Z,20.44
2022-09-15T05:50:51.411Z,20.50
2022-09-15T05:53:54.204Z,20.49
2022-09-15T05:56:57.047Z,20.50
2022-09-15T06:00:00.081Z,20.55
2022-09-15T06:03:03.710Z,20.57
2022-09-15T06:06:07.309Z,20.61
2022-09-15T06:09:09.896Z,20.74
2022-09-15T06:12:12.896Z,20.87
2022-09-15T06:15:15.959Z,20.90
2022-09-15T06:18:19.140Z,20.98
2022-09-15T06:21:24.486Z,21.04
2022-09-15T06:24:27.522Z,21.06
2022-09-15T06:27:30.145Z,21.01
2022-09-15T06:30:33.362Z,21.21
2022-09-15T06:33:36.537Z,21.28
2022-09-15T06:36:40.377Z,21.49
2022-09-15T06:39:44.334Z,21.68
2022-09-15T06:42:47.562Z,21.74
2022-09-15T06:45:50.803Z,21.84
2022-09-15T06:48:54.508Z,21.97
2022-09-15T06:51:58.057Z,22.01
2022-09-15T06:55:00.942Z,22.02
2022-09-15T06:58:04.294Z,22.02
2022-09-15T07:01:11.483Z,21.99
2022-09-15T07:04:14.407Z,21.91
2022-09-15T07:07:17.263Z,21.81
2022-09-15T07:10:20.282Z,21.81
2022-09-15T07:13:24.201Z,22.00
2022-09-15T07:16:27.305Z,22.11
2022-09-15T07:19:30.407Z,22.18
2022-09-15T07:22:33.001Z,22.18
2022-09-15T07:25:36.210Z,22.22
2022-09-15T07:28:40.471Z,22.04
2022-09-15T07:31:43.495Z,22.04
2022-09-15T07:34:46.710Z,22.11
2022-09-15T07:37:51.829Z,22.16
2022-09-15T07:40:54.642Z,22.22
2022-09-15T07:43:59.333Z,22.39
2022-09-15T07:47:02.160Z,22.42
2022-09-15T07:50:06.650Z,22.55
2022-09-15T07:53:09.643Z,22.62
2022-09-15T07:56:13.070Z,22.76
2022-09-15T07:59:16.007Z,22.82
2022-09-15T08:02:21.372Z,23.05
2022-09-15T08:05:28.257Z,23.24
2022-09-15T08:08:31.168Z,23.36
2022-09-15T08:11:34.495Z,23.33
2022-09-15T08:14:37.822Z,23.54
2022-09-15T08:17:41.711Z,23.46
2022-09-15T08:20:44.887Z,23.32
2022-09-15T08:23:52.885Z,23.40
2022-09-15T08:26:55.707Z,23.45
2022-09-15T08:29:58.981Z,23.32
2022-09-15T08:33:01.874Z,23.55
2022-09-15T08:36:08.289Z,23.82
2022-09-15T08:39:11.705Z,23.97
2022-09-15T08:42:17.754Z,24.11
2022-09-15T08:45:26.020Z,24.38
2022-09-15T08:48:40.214Z,24.70
2022-09-15T08:51:48.596Z,24.76
2022-09-15T08:54:56.042Z,24.90
2022-09-15T08:57:58.858Z,25.07
2022-09-15T09:01:06.164Z,25.26
2022-09-15T09:04:22.518Z,25.43
2022-09-15T09:07:37.682Z,25.67
2022-09-15T09:10:52.770Z,25.77
2022-09-15T09:14:04.098Z,25.69
2022-09-15T09:17:29.169Z,25.70
2022-09-15T09:20:41.386Z,25.83
2022-09-15T09:24:04.148Z,26.02
2022-09-15T09:27:20.144Z,26.19
2022-09-15T09:30:24.308Z,26.42
2022-09-15T09:33:38.859Z,26.55
2022-09-15T09:36:42.794Z,26.67
2022-09-15T09:39:47.532Z,26.34
2022-09-15T09:42:50.598Z,26.18
2022-09-15T09:45:54.082Z,26.47
2022-09-15T09:49:03.131Z,26.58
2022-09-15T09:52:06.461Z,26.51
2022-09-15T09:55:18.412Z,26.37
2022-09-15T09:58:25.729Z,26.30
2022-09-15T10:01:28.869Z,26.33
2022-09-15T10:04:31.941Z,26.22
2022-09-15T10:07:41.201Z,26.16
2022-09-15T10:10:55.971Z,25.99
2022-09-15T10:13:58.900Z,26.05
2022-09-15T10:17:10.137Z,25.85
2022-09-15T10:20:50.591Z,26.12
2022-09-15T10:23:53.747Z,26.51
2022-09-15T10:27:27.246Z,26.64
2022-09-15T10:30:30.532Z,26.85
2022-09-15T10:33:35.151Z,26.93
2022-09-15T10:36:38.458Z,27.12
2022-09-15T10:39:55.007Z,26.96
2022-09-15T10:43:10.516Z,26.73
2022-09-15T10:46:24.020Z,26.83
2022-09-15T10:49:37.621Z,26.71
2022-09-15T10:53:14.280Z,26.77
2022-09-15T10:56:44.325Z,26.69
2022-09-15T11:00:18.982Z,26.68
2022-09-15T11:03:46.988Z,26.67
2022-09-15T11:07:20.659Z,27.04
2022-09-15T11:11:06.367Z,27.04
2022-09-15T11:14:34.783Z,27.02
2022-09-15T11:18:14.558Z,27.02
2022-09-15T11:21:23.363Z,26.76
2022-09-15T11:24:30.057Z,26.68
2022-09-15T11:27:54.066Z,26.60
2022-09-15T11:31:09.500Z,26.45
2022-09-15T11:34:26.973Z,26.34
2022-09-15T11:37:45.878Z,26.10
2022-09-15T11:41:06.231Z,25.89
2022-09-15T11:44:22.316Z,25.85
2022-09-15T11:47:30.921Z,25.74
2022-09-15T11:50:39.497Z,25.67
2022-09-15T11:54:04.512Z,25.83
2022-09-15T11:57:21.195Z,26.08
2022-09-15T12:00:24.518Z,26.42
2022-09-15T12:03:40.145Z,26.60
2022-09-15T12:06:55.337Z,26.67
2022-09-15T12:10:06.851Z,26.68
2022-09-15T12:13:21.518Z,26.29
2022-09-15T12:16:26.386Z,25.97
2022-09-15T12:19:33.426Z,25.56
2022-09-15T12:22:59.183Z,25.29
2022-09-15T12:26:14.204Z,25.05
2022-09-15T12:29:26.513Z,24.81
2022-09-15T12:32:35.091Z,24.34
2022-09-15T12:35:38.328Z,23.71
2022-09-15T12:38:48.157Z,23.21
2022-09-15T12:42:00.351Z,22.61
2022-09-15T12:45:29.573Z,22.12
2022-09-15T12:48:35.736Z,21.57
2022-09-15T12:51:38.595Z,21.33
2022-09-15T12:54:45.283Z,21.20
2022-09-15T12:57:54.555Z,21.01
2022-09-15T13:01:31.472Z,20.92
2022-09-15T13:04:52.602Z,20.70
2022-09-15T13:07:57.591Z,20.47
2022-09-15T13:11:15.071Z,20.16
2022-09-15T13:14:34.341Z,19.99
2022-09-15T13:17:43.242Z,19.84
2022-09-15T13:20:55.031Z,19.75
2022-09-15T13:23:58.211Z,19.58
2022-09-15T13:27:02.312Z,19.26
2022-09-15T13:30:20.557Z,18.93
2022-09-15T13:33:23.955Z,18.64
2022-09-15T13:40:59.052Z,18.21
2022-09-15T13:44:04.440Z,18.04
2022-09-15T13:48:05.899Z,17.92
2022-09-15T13:51:34.340Z,17.90
2022-09-15T13:54:37.695Z,17.79
2022-09-15T14:01:12.489Z,17.41
2022-09-15T14:04:19.251Z,17.32
2022-09-15T14:07:25.863Z,17.37
2022-09-15T14:10:33.445Z,17.43
2022-09-15T14:13:40.847Z,17.49
2022-09-15T14:16:49.586Z,17.53
2022-09-15T14:19:54.891Z,17.52
2022-09-15T14:22:59.879Z,17.56
2022-09-15T14:26:02.988Z,17.55
2022-09-15T14:29:07.183Z,17.67
2022-09-15T14:32:17.408Z,17.66
2022-09-15T14:35:24.285Z,17.63
2022-09-15T14:38:27.115Z,17.53
2022-09-15T14:41:32.891Z,17.54
2022-09-15T14:48:07.393Z,17.67
2022-09-15T14:51:25.737Z,17.63
2022-09-15T14:54:36.927Z,17.64
2022-09-15T14:57:45.805Z,17.65
2022-09-15T15:01:15.637Z,17.75
2022-09-15T15:04:36.774Z,17.83
2022-09-15T15:07:40.523Z,17.84
2022-09-15T15:10:43.275Z,17.85
2022-09-15T15:13:50.770Z,17.85
2022-09-15T15:17:03.034Z,17.87
2022-09-15T15:20:06.219Z,17.90
2022-09-15T15:23:20.628Z,17.86
2022-09-15T15:26:35.468Z,17.83
2022-09-15T15:29:43.495Z,17.78
2022-09-15T15:32:46.818Z,17.80
2022-09-15T15:36:02.509Z,17.81
2022-09-15T15:39:07.559Z,17.92
2022-09-15T15:42:15.917Z,18.00
2022-09-15T15:45:24.842Z,18.00
2022-09-15T15:48:32.837Z,17.97
2022-09-15T15:51:41.090Z,18.04
2022-09-15T15:54:43.629Z,18.07
2022-09-15T15:57:52.376Z,18.10
2022-09-15T16:00:56.950Z,18.24
2022-09-15T16:04:00.092Z,18.29
2022-09-15T16:07:02.856Z,18.28
2022-09-15T16:10:07.060Z,18.22
2022-09-15T16:13:14.482Z,18.28
2022-09-15T16:16:19.614Z,18.22
2022-09-15T16:19:22.300Z,18.13
2022-09-15T16:22:25.337Z,18.14
2022-09-15T16:25:34.191Z,18.20
2022-09-15T16:28:36.959Z,18.25
2022-09-15T16:31:39.887Z,18.40
2022-09-15T16:34:42.608Z,18.49
2022-09-15T16:37:45.159Z,18.52
2022-09-15T16:40:49.537Z,18.40
2022-09-15T16:43:53.375Z,18.34
2022-09-15T16:46:56.514Z,18.26
2022-09-15T16:49:59.672Z,18.11
2022-09-15T16:53:03.200Z,18.01
2022-09-15T16:56:07.838Z,17.95
2022-09-15T16:59:10.642Z,17.88
2022-09-15T17:02:14.211Z,17.78
2022-09-15T17:05:52.638Z,17.72
2022-09-15T17:08:58.152Z,17.67
2022-09-15T17:12:01.031Z,17.66
2022-09-15T17:15:21.220Z,17.62
2022-09-15T17:18:24.394Z,17.58
2022-09-15T17:21:27.292Z,17.54
2022-09-15T17:24:30.035Z,17.52
2022-09-15T17:27:32.610Z,17.50
2022-09-15T17:30:35.889Z,17.46
2022-09-15T17:33:38.372Z,17.44
2022-09-15T17:36:41.271Z,17.38
2022-09-15T17:39:44.170Z,17.36
2022-09-15T17:42:47.847Z,17.33
2022-09-15T17:45:51.762Z,17.31
2022-09-15T17:48:54.630Z,17.32
2022-09-15T17:51:57.103Z,17.33
2022-09-15T17:55:01.075Z,17.35
2022-09-15T17:58:04.290Z,17.34
2022-09-15T18:01:07.905Z,17.33
2022-09-15T18:04:11.372Z,17.31
2022-09-15T18:07:13.951Z,17.33
2022-09-15T18:10:17.942Z,17.33
2022-09-15T18:13:27.148Z,17.30
2022-09-15T18:16:29.951Z,17.27
2022-09-15T18:19:32.568Z,17.25
2022-09-15T18:22:35.476Z,17.26
2022-09-15T18:25:38.047Z,17.23
2022-09-15T18:28:41.190Z,17.22
2022-09-15T18:31:44.901Z,17.20
2022-09-15T18:34:49.060Z,17.16
2022-09-15T18:37:57.440Z,17.16
2022-09-15T18:41:01.427Z,17.13
2022-09-15T18:44:04.065Z,17.09
2022-09-15T18:47:06.910Z,17.08
2022-09-15T18:50:12.235Z,17.10
2022-09-15T18:53:15.234Z,17.10
2022-09-15T18:56:17.816Z,17.12
2022-09-15T18:59:20.695Z,17.13
2022-09-15T19:02:23.567Z,17.12
2022-09-15T19:05:27.933Z,17.10
2022-09-15T19:08:30.597Z,17.08
2022-09-15T19:11:34.002Z,17.06
2022-09-15T19:14:36.522Z,17.05
2022-09-15T19:17:40.802Z,17.01
2022-09-15T19:20:43.885Z,16.99
2022-09-15T19:23:49.330Z,17.05
2022-09-15T19:26:52.018Z,17.03
2022-09-15T19:29:54.907Z,17.03
2022-09-15T19:32:57.498Z,17.06
2022-09-15T19:36:26.826Z,17.05
2022-09-15T19:39:28.025Z,17.07
2022-09-15T19:42:30.917Z,17.02
2022-09-15T19:45:34.001Z,17.02
2022-09-15T19:48:39.882Z,17.01
2022-09-15T19:51:44.855Z,17.03
2022-09-15T19:54:47.928Z,16.98
2022-09-15T19:57:50.824Z,17.00
2022-09-15T20:00:55.480Z,17.01
2022-09-15T20:03:58.707Z,16.98
2022-09-15T20:07:01.114Z,16.95
2022-09-15T20:10:04.548Z,16.94
2022-09-15T20:13:07.583Z,16.92
2022-09-15T20:16:20.688Z,16.94
2022-09-15T20:19:23.288Z,16.98
2022-09-15T20:22:26.699Z,16.95
2022-09-15T20:25:29.177Z,16.91
2022-09-15T20:28:32.856Z,16.91
2022-09-15T20:31:35.344Z,16.97
2022-09-15T20:34:38.206Z,16.99
2022-09-15T20:37:42.015Z,16.98
2022-09-15T20:40:45.109Z,16.94
2022-09-15T20:43:47.634Z,16.93
2022-09-15T20:46:50.339Z,16.93
2022-09-15T20:49:52.895Z,16.92
2022-09-15T20:52:55.655Z,16.91
2022-09-15T20:55:58.440Z,16.94
2022-09-15T20:59:01.596Z,16.97
2022-09-15T21:02:06.237Z,16.93
2022-09-15T21:05:09.166Z,16.92
2022-09-15T21:08:12.474Z,17.02
2022-09-15T21:11:16.995Z,17.04
2022-09-15T21:14:19.461Z,17.12
2022-09-15T21:17:23.088Z,17.16
2022-09-15T21:20:27.542Z,17.20
2022-09-15T21:23:36.116Z,17.19
2022-09-15T21:27:01.210Z,17.23
2022-09-15T21:30:05.050Z,17.46
2022-09-15T21:33:08.237Z,17.64
2022-09-15T21:36:22.043Z,17.59
2022-09-15T21:39:24.576Z,17.69
2022-09-15T21:42:27.390Z,17.71
2022-09-15T21:45:30.280Z,17.75
2022-09-15T21:48:34.985Z,17.68
2022-09-15T21:51:37.513Z,17.68
2022-09-15T21:54:40.253Z,17.74
2022-09-15T21:57:42.781Z,17.66
2022-09-15T22:00:47.333Z,17.68
2022-09-15T22:04:06.992Z,17.66
2022-09-15T22:07:09.726Z,17.62
2022-09-15T22:10:12.850Z,17.60
2022-09-15T22:13:15.275Z,17.59
2022-09-15T22:16:20.853Z,17.59
2022-09-15T22:19:23.571Z,17.54
2022-09-15T22:22:26.369Z,17.48
2022-09-15T22:25:29.135Z,17.45
2022-09-15T22:28:32.365Z,17.45
2022-09-15T22:31:35.476Z,17.50
2022-09-15T22:34:38.244Z,17.42
2022-09-15T22:37:40.757Z,17.45
2022-09-15T22:40:43.607Z,17.41
2022-09-15T22:43:48.013Z,17.34
2022-09-15T22:46:51.395Z,17.43
2022-09-15T22:49:54.069Z,17.40
2022-09-15T22:52:56.854Z,17.36
2022-09-15T22:56:05.757Z,17.34
2022-09-15T22:59:08.593Z,17.36
2022-09-15T23:02:11.354Z,17.38
2022-09-15T23:05:14.407Z,17.26
2022-09-15T23:08:16.890Z,17.30
2022-09-15T23:11:20.202Z,17.30
2022-09-15T23:14:23.874Z,17.25
2022-09-15T23:17:27.427Z,17.19
2022-09-15T23:20:29.993Z,17.21
2022-09-15T23:23:34.277Z,17.16
2022-09-15T23:26:36.804Z,17.24
2022-09-15T23:29:39.852Z,17.26
2022-09-15T23:32:42.539Z,17.20
2022-09-15T23:35:45.922Z,17.25
2022-09-15T23:38:49.632Z,17.22
2022-09-15T23:41:52.516Z,17.20
2022-09-15T23:44:55.108Z,17.19
2022-09-15T23:47:57.920Z,17.14
2022-09-15T23:51:00.941Z,17.10
2022-09-15T23:54:04.711Z,17.09
2022-09-15T23:57:08.844Z,17.07
